Ashford, Connecticut
Current Conditions -  °F | °C
As of 9:52 PM on Saturday 22 Nov 2014 (Local Time) from KIJD Reporting Station
Few Clouds Few Clouds  
Wind Chill: 38°   Ceiling: Unl
Heat Index: 43°   Visibility: 10mi
Dew Point: 20°   Wind: 8mph
Humidity: 40%   Direction: 220°SW
Pressure: 30.14"   Gusts: 18mph
Location:  41.87°N, 72.12°W
Report Text: KIJD 230252Z AUTO 22007G16KT 10SM FEW038 06/M07 A3014 RMK AO2 SLP208 T00611067 56014
Loading
Personal Weather Stations






























Interactive Weather Map New forecast layout! Learn more

10-Day Weather Forecast

Advertisements
Track Severe Weather on mobile